createdAt,value
2019-01-23T00:01:43.151Z,42.77
2019-01-23T00:04:13.536Z,43.73
2019-01-23T00:21:11.736Z,43.83
2019-01-23T00:23:40.194Z,40.87
2019-01-23T00:26:08.550Z,42.30
2019-01-23T00:28:42.368Z,43.60
2019-01-23T00:31:08.567Z,43.80
2019-01-23T00:33:36.967Z,41.37
2019-01-23T00:36:05.473Z,45.20
2019-01-23T00:38:33.880Z,42.80
2019-01-23T00:41:02.315Z,44.23
2019-01-23T00:43:30.717Z,40.83
2019-01-23T00:45:59.152Z,43.47
2019-01-23T00:48:27.566Z,44.77
2019-01-23T00:50:55.928Z,44.50
2019-01-23T00:53:24.303Z,43.87
2019-01-23T00:55:52.701Z,40.87
2019-01-23T00:58:21.147Z,42.80
2019-01-23T01:00:49.615Z,41.90
2019-01-23T01:03:17.977Z,43.23
2019-01-23T01:05:46.371Z,42.17
2019-01-23T01:08:14.741Z,45.00
2019-01-23T01:10:43.239Z,43.47
2019-01-23T01:13:11.642Z,43.10
2019-01-23T01:15:40.096Z,42.17
2019-01-23T01:18:08.594Z,41.43
2019-01-23T01:20:37.071Z,41.17
2019-01-23T01:23:05.567Z,42.20
2019-01-23T01:25:34.026Z,42.00
2019-01-23T01:28:02.466Z,42.63
2019-01-23T01:30:30.999Z,41.70
2019-01-23T01:32:59.436Z,43.33
2019-01-23T01:35:27.831Z,40.53
2019-01-23T01:37:56.257Z,42.00
2019-01-23T01:40:24.789Z,41.33
2019-01-23T01:42:53.301Z,43.07
2019-01-23T01:45:21.768Z,41.27
2019-01-23T01:47:50.142Z,40.70
2019-01-23T01:50:19.884Z,41.93
2019-01-23T01:52:48.382Z,42.30
2019-01-23T01:55:17.013Z,40.33
2019-01-23T01:57:45.470Z,41.43
2019-01-23T02:00:21.874Z,42.90
2019-01-23T02:02:50.373Z,41.43
2019-01-23T02:05:18.970Z,39.47
2019-01-23T02:07:47.471Z,40.40
2019-01-23T02:10:17.982Z,44.33
2019-01-23T02:12:46.444Z,41.60
2019-01-23T02:15:15.849Z,41.13
2019-01-23T02:17:44.622Z,42.13
2019-01-23T02:20:18.651Z,42.97
2019-01-23T02:22:47.129Z,42.47
2019-01-23T02:25:15.621Z,42.30
2019-01-23T02:27:45.155Z,41.83
2019-01-23T02:30:18.553Z,43.43
2019-01-23T02:32:46.952Z,41.57
2019-01-23T02:35:15.383Z,42.93
2019-01-23T02:37:43.907Z,45.67
2019-01-23T02:40:15.308Z,45.50
2019-01-23T02:42:43.769Z,45.87
2019-01-23T02:45:21.218Z,44.63
2019-01-23T02:47:49.673Z,44.47
2019-01-23T02:50:18.178Z,44.90
2019-01-23T02:52:46.637Z,42.27
2019-01-23T02:55:15.067Z,43.17
2019-01-23T02:57:43.534Z,45.03
2019-01-23T03:00:14.605Z,44.27
2019-01-23T03:02:43.410Z,46.03
2019-01-23T03:05:17.193Z,42.30
2019-01-23T03:07:45.664Z,45.97
2019-01-23T03:10:16.723Z,47.13
2019-01-23T03:12:45.154Z,47.73
2019-01-23T03:15:15.888Z,43.10
2019-01-23T03:17:44.347Z,44.63
2019-01-23T03:20:15.254Z,48.97
2019-01-23T03:22:43.682Z,45.70
2019-01-23T03:25:13.125Z,44.33
2019-01-23T03:27:41.559Z,49.00
2019-01-23T03:30:15.452Z,44.27
2019-01-23T03:32:43.894Z,43.33
2019-01-23T03:35:12.430Z,44.57
2019-01-23T03:37:40.857Z,41.83
2019-01-23T03:40:20.512Z,47.67
2019-01-23T03:42:48.947Z,41.60
2019-01-23T03:45:18.581Z,44.70
2019-01-23T03:47:47.114Z,42.30
2019-01-23T03:50:17.433Z,46.47
2019-01-23T03:52:45.936Z,41.70
2019-01-23T03:55:15.871Z,40.60
2019-01-23T03:57:44.290Z,45.33
2019-01-23T04:00:20.659Z,40.50
2019-01-23T04:02:49.842Z,44.07
2019-01-23T04:05:18.320Z,41.93
2019-01-23T04:07:46.817Z,47.60
2019-01-23T04:10:16.455Z,40.53
2019-01-23T04:12:44.876Z,44.57
2019-01-23T04:15:15.408Z,44.40
2019-01-23T04:17:43.824Z,46.93
2019-01-23T04:20:17.756Z,42.90
2019-01-23T04:22:46.293Z,42.33
2019-01-23T04:25:15.176Z,41.23
2019-01-23T04:27:43.602Z,47.70
2019-01-23T04:30:21.084Z,43.90
2019-01-23T04:32:49.590Z,42.30
2019-01-23T04:35:18.284Z,46.33
2019-01-23T04:37:47.179Z,46.97
2019-01-23T04:40:16.211Z,45.53
2019-01-23T04:42:44.628Z,44.00
2019-01-23T04:45:15.638Z,45.63
2019-01-23T04:47:44.140Z,42.87
2019-01-23T04:50:15.342Z,42.63
2019-01-23T04:53:01.741Z,45.37
2019-01-23T04:55:30.205Z,44.33
2019-01-23T04:57:58.594Z,45.93
2019-01-23T05:00:28.689Z,41.83
2019-01-23T05:02:57.132Z,42.83
2019-01-23T05:05:25.527Z,41.00
2019-01-23T05:07:54.030Z,42.37
2019-01-23T05:10:22.510Z,44.20
2019-01-23T05:12:50.862Z,46.07
2019-01-23T05:15:19.221Z,47.33
2019-01-23T05:17:47.693Z,42.83
2019-01-23T05:20:16.898Z,40.93
2019-01-23T05:22:45.459Z,47.17
2019-01-23T05:25:13.964Z,44.17
2019-01-23T05:27:42.367Z,40.50
2019-01-23T05:30:16.881Z,44.30
2019-01-23T05:32:45.341Z,46.37
2019-01-23T05:35:13.766Z,44.30
2019-01-23T05:37:42.230Z,45.27
2019-01-23T05:40:11.327Z,44.70
2019-01-23T05:42:39.738Z,44.70
2019-01-23T05:45:14.175Z,41.83
2019-01-23T05:47:42.704Z,45.37
2019-01-23T05:50:18.833Z,48.20
2019-01-23T05:52:48.455Z,43.00
2019-01-23T05:55:16.973Z,44.97
2019-01-23T05:57:45.453Z,49.17
2019-01-23T06:00:20.312Z,48.37
2019-01-23T06:02:48.882Z,47.13
2019-01-23T06:05:18.194Z,47.23
2019-01-23T06:07:46.656Z,50.97
2019-01-23T06:10:15.258Z,47.83
2019-01-23T06:12:43.789Z,47.90
2019-01-23T06:15:14.564Z,48.87
2019-01-23T06:17:43.044Z,47.37
2019-01-23T06:20:19.574Z,50.73
2019-01-23T06:22:47.973Z,51.37
2019-01-23T06:25:16.477Z,51.00
2019-01-23T06:27:45.006Z,47.87
2019-01-23T06:30:18.791Z,49.53
2019-01-23T06:32:47.258Z,49.07
2019-01-23T06:35:15.775Z,48.60
2019-01-23T06:37:44.301Z,54.30
2019-01-23T06:40:14.700Z,47.80
2019-01-23T06:42:43.156Z,55.47
2019-01-23T06:45:13.891Z,51.57
2019-01-23T06:47:42.409Z,50.23
2019-01-23T06:50:16.253Z,53.37
2019-01-23T06:52:44.683Z,51.27
2019-01-23T06:55:13.209Z,53.23
2019-01-23T06:57:41.584Z,52.40
2019-01-23T07:00:17.099Z,51.83
2019-01-23T07:02:43.233Z,51.50
2019-01-23T07:05:12.067Z,51.10
2019-01-23T07:07:40.506Z,52.17
2019-01-23T07:10:15.212Z,50.23
2019-01-23T07:12:43.577Z,47.43
2019-01-23T07:15:12.635Z,50.23
2019-01-23T07:17:41.077Z,54.67
2019-01-23T07:20:12.652Z,55.40
2019-01-23T07:22:41.076Z,49.63
2019-01-23T07:25:10.226Z,58.33
2019-01-23T07:27:38.730Z,60.00
2019-01-23T07:30:10.321Z,53.33
2019-01-23T07:32:38.685Z,55.53
2019-01-23T07:35:07.149Z,50.57
2019-01-23T07:37:35.524Z,54.63
2019-01-23T07:40:07.468Z,56.27
2019-01-23T07:42:35.838Z,55.83
2019-01-23T07:45:06.937Z,55.13
2019-01-23T07:47:35.296Z,55.57
2019-01-23T07:50:04.626Z,47.43
2019-01-23T07:52:33.065Z,50.17
2019-01-23T07:55:01.471Z,53.17
2019-01-23T07:57:29.839Z,54.37
2019-01-23T07:59:58.237Z,58.03
2019-01-23T08:02:26.672Z,57.03
2019-01-23T08:04:55.140Z,64.33
2019-01-23T08:07:23.592Z,63.63
2019-01-23T08:09:52.057Z,70.37
2019-01-23T08:12:20.422Z,60.90
2019-01-23T08:14:48.862Z,61.70
2019-01-23T08:17:17.330Z,59.67
2019-01-23T08:19:45.766Z,52.30
2019-01-23T08:22:14.225Z,51.30
2019-01-23T08:24:42.664Z,53.50
2019-01-23T08:27:11.122Z,51.80
2019-01-23T08:29:39.500Z,48.03
2019-01-23T08:32:07.964Z,53.17
2019-01-23T08:34:36.402Z,55.37
2019-01-23T08:37:04.870Z,50.50
2019-01-23T08:39:33.227Z,53.13
2019-01-23T08:42:01.643Z,54.70
2019-01-23T08:44:29.995Z,50.43
2019-01-23T08:46:58.391Z,51.47
2019-01-23T08:49:26.830Z,49.23
2019-01-23T08:51:55.224Z,50.83
2019-01-23T08:54:23.580Z,53.00
2019-01-23T08:56:52.050Z,52.57
2019-01-23T08:59:20.404Z,53.13
2019-01-23T09:01:48.798Z,53.70
2019-01-23T09:04:17.163Z,52.70
2019-01-23T09:06:45.625Z,53.53
2019-01-23T09:09:13.987Z,52.93
2019-01-23T09:11:43.098Z,54.20
2019-01-23T09:14:11.528Z,54.33
2019-01-23T09:16:40.027Z,56.87
2019-01-23T09:19:08.473Z,49.30
2019-01-23T09:21:36.853Z,52.77
2019-01-23T09:24:05.463Z,56.53
2019-01-23T09:26:33.913Z,51.47
2019-01-23T09:29:02.401Z,55.03
2019-01-23T09:31:53.258Z,53.80
2019-01-23T09:34:24.849Z,54.23
2019-01-23T09:37:08.497Z,52.17
2019-01-23T09:39:51.921Z,50.47
2019-01-23T09:42:43.160Z,55.13
2019-01-23T09:45:32.100Z,53.10
2019-01-23T09:48:09.391Z,51.53
2019-01-23T09:53:31.682Z,54.30
2019-01-23T09:56:00.112Z,50.57
2019-01-23T09:58:28.565Z,51.17
2019-01-23T10:00:59.791Z,49.70
2019-01-23T10:03:27.276Z,48.30
2019-01-23T10:05:55.701Z,49.83
2019-01-23T10:08:24.170Z,45.67
2019-01-23T10:10:52.604Z,45.50
2019-01-23T10:13:21.000Z,45.20
2019-01-23T10:15:49.606Z,46.77
2019-01-23T10:18:18.009Z,47.03
2019-01-23T10:20:46.437Z,45.77
2019-01-23T10:23:14.905Z,43.30
2019-01-23T10:25:43.335Z,44.67
2019-01-23T10:28:11.732Z,44.47
2019-01-23T10:30:41.856Z,43.47
2019-01-23T10:33:10.266Z,45.63
2019-01-23T10:35:38.699Z,44.77
2019-01-23T10:38:07.150Z,45.80
2019-01-23T10:40:35.606Z,46.30
2019-01-23T10:43:04.210Z,45.43
2019-01-23T10:45:32.613Z,45.90
2019-01-23T10:48:00.975Z,44.13
2019-01-23T10:50:29.466Z,45.17
2019-01-23T10:52:57.805Z,43.77
2019-01-23T10:55:26.271Z,43.90
2019-01-23T10:57:54.701Z,44.17
2019-01-23T11:00:24.345Z,45.87
2019-01-23T11:02:52.779Z,44.73
2019-01-23T11:05:22.910Z,45.87
2019-01-23T11:07:51.543Z,45.17
2019-01-23T11:10:25.161Z,45.27
2019-01-23T11:12:56.097Z,45.53
2019-01-23T11:15:25.055Z,44.83
2019-01-23T11:17:53.980Z,42.83
2019-01-23T11:20:24.168Z,43.57
2019-01-23T11:22:52.941Z,43.27
2019-01-23T11:25:22.019Z,42.40
2019-01-23T11:27:50.763Z,41.97
2019-01-23T11:30:26.944Z,44.80
2019-01-23T11:32:55.427Z,42.00
2019-01-23T11:35:24.984Z,42.63
2019-01-23T11:37:56.393Z,43.23
2019-01-23T11:40:32.930Z,43.40
2019-01-23T11:43:02.416Z,43.87
2019-01-23T11:45:33.027Z,39.80
2019-01-23T11:48:01.556Z,40.33
2019-01-23T11:50:30.087Z,40.07
2019-01-23T11:53:00.588Z,39.40
2019-01-23T11:55:29.622Z,40.93
2019-01-23T11:57:58.586Z,40.80
2019-01-23T12:00:28.708Z,38.77
2019-01-23T12:02:57.603Z,39.57
2019-01-23T12:05:28.838Z,42.93
2019-01-23T12:10:52.247Z,39.37
2019-01-23T12:13:26.794Z,41.30
2019-01-23T12:15:58.729Z,40.17
2019-01-23T12:18:33.033Z,39.57
2019-01-23T12:21:07.983Z,38.87
2019-01-23T12:23:39.302Z,41.37
2019-01-23T12:26:09.994Z,38.23
2019-01-23T12:28:38.830Z,37.90
2019-01-23T12:31:07.366Z,40.17
2019-01-23T12:33:36.504Z,38.10
2019-01-23T12:36:05.170Z,39.47
2019-01-23T12:38:33.908Z,42.63
2019-01-23T12:41:04.108Z,41.27
2019-01-23T12:43:33.019Z,39.23
2019-01-23T12:46:02.071Z,41.00
2019-01-23T12:48:30.528Z,37.87
2019-01-23T12:50:59.456Z,37.30
2019-01-23T12:53:29.536Z,37.93
2019-01-23T12:55:58.202Z,38.17
2019-01-23T12:58:27.021Z,39.67
2019-01-23T13:00:55.452Z,40.27
2019-01-23T13:03:24.616Z,38.73
2019-01-23T13:05:53.550Z,38.87
2019-01-23T13:08:22.324Z,38.63
2019-01-23T13:10:53.451Z,38.77
2019-01-23T13:13:21.843Z,37.13
2019-01-23T13:15:53.283Z,36.77
2019-01-23T13:18:23.349Z,39.83
2019-01-23T13:20:52.312Z,37.60
2019-01-23T13:23:21.023Z,38.20
2019-01-23T13:25:49.379Z,40.00
2019-01-23T13:28:18.172Z,39.73
2019-01-23T13:30:46.604Z,35.70
2019-01-23T13:33:15.131Z,37.83
2019-01-23T13:35:45.009Z,38.23
2019-01-23T13:38:14.154Z,37.57
2019-01-23T13:40:42.961Z,37.83
2019-01-23T13:43:11.700Z,36.07
2019-01-23T13:45:41.761Z,37.77
2019-01-23T13:48:11.855Z,38.80
2019-01-23T13:50:41.872Z,38.80
2019-01-23T13:53:10.399Z,37.30
2019-01-23T13:55:38.906Z,36.40
2019-01-23T13:58:07.419Z,36.63
2019-01-23T14:00:40.189Z,35.73
2019-01-23T14:03:09.471Z,38.03
2019-01-23T14:05:39.034Z,37.27
2019-01-23T14:08:08.793Z,38.33
2019-01-23T14:10:38.613Z,36.70
2019-01-23T14:13:08.765Z,38.00
2019-01-23T14:15:39.149Z,39.30
2019-01-23T14:18:09.563Z,36.87
2019-01-23T14:20:38.420Z,37.53
2019-01-23T14:23:07.120Z,37.27
2019-01-23T14:25:38.857Z,38.07
2019-01-23T14:28:07.812Z,37.60
2019-01-23T14:30:42.743Z,37.93
2019-01-23T14:33:11.405Z,37.93
2019-01-23T14:35:41.703Z,35.90
2019-01-23T14:38:11.941Z,37.90
2019-01-23T14:40:40.906Z,39.03
2019-01-23T14:43:09.405Z,44.67
2019-01-23T14:45:38.295Z,38.90
2019-01-23T14:48:07.301Z,39.90
2019-01-23T14:50:36.225Z,40.80
2019-01-23T14:53:07.125Z,39.17
2019-01-23T14:55:35.935Z,38.17
2019-01-23T14:58:04.635Z,38.03
2019-01-23T15:00:34.355Z,37.40
2019-01-23T15:03:03.302Z,37.73
2019-01-23T15:05:31.891Z,39.27
2019-01-23T15:08:00.394Z,39.40
2019-01-23T15:10:33.317Z,38.93
2019-01-23T15:13:02.369Z,38.87
2019-01-23T15:15:31.156Z,37.53
2019-01-23T15:18:00.014Z,38.07
2019-01-23T15:20:36.257Z,36.97
2019-01-23T15:23:05.709Z,37.63
2019-01-23T15:25:35.031Z,37.67
2019-01-23T15:28:06.058Z,36.57
2019-01-23T15:30:34.734Z,39.67
2019-01-23T15:33:04.256Z,36.47
2019-01-23T15:35:33.415Z,38.10
2019-01-23T15:38:01.876Z,38.17
2019-01-23T15:40:33.247Z,38.00
2019-01-23T15:43:02.062Z,38.67
2019-01-23T15:45:32.476Z,38.43
2019-01-23T15:48:01.250Z,38.40
2019-01-23T15:50:29.804Z,36.33
2019-01-23T15:52:58.719Z,37.97
2019-01-23T15:55:27.549Z,39.00
2019-01-23T15:57:57.794Z,36.03
2019-01-23T16:00:28.981Z,35.90
2019-01-23T16:02:57.597Z,36.43
2019-01-23T16:05:26.225Z,39.27
2019-01-23T16:07:55.308Z,41.73
2019-01-23T16:10:26.320Z,64.53
2019-01-23T16:12:56.323Z,73.80
2019-01-23T16:15:29.218Z,56.23
2019-01-23T16:17:57.738Z,41.90
2019-01-23T16:20:28.546Z,43.17
2019-01-23T16:22:58.189Z,42.40
2019-01-23T16:25:27.442Z,42.83
2019-01-23T16:27:56.561Z,41.47
2019-01-23T16:30:28.429Z,39.83
2019-01-23T16:32:57.941Z,39.50
2019-01-23T16:35:26.742Z,39.23
2019-01-23T16:37:55.607Z,39.90
2019-01-23T16:40:24.106Z,39.33
2019-01-23T16:42:53.306Z,38.57
2019-01-23T16:45:22.876Z,37.90
2019-01-23T16:47:51.506Z,41.20
2019-01-23T16:50:25.922Z,41.40
2019-01-23T16:52:55.949Z,37.10
2019-01-23T16:55:24.851Z,36.33
2019-01-23T16:57:53.968Z,40.30
2019-01-23T17:00:26.170Z,39.70
2019-01-23T17:02:56.303Z,40.13
2019-01-23T17:05:32.531Z,39.73
2019-01-23T17:08:02.857Z,36.90
2019-01-23T17:10:31.680Z,37.23
2019-01-23T17:13:00.506Z,38.47
2019-01-23T17:15:30.507Z,37.10
2019-01-23T17:17:58.894Z,38.80
2019-01-23T17:20:30.811Z,39.07
2019-01-23T17:22:59.298Z,38.47
2019-01-23T17:25:27.860Z,39.93
2019-01-23T17:27:56.310Z,39.53
2019-01-23T17:30:24.728Z,38.80
2019-01-23T17:32:53.184Z,40.57
2019-01-23T17:35:21.966Z,42.27
2019-01-23T17:37:50.342Z,38.87
2019-01-23T17:40:20.912Z,38.87
2019-01-23T17:42:49.358Z,40.27
2019-01-23T17:45:20.641Z,38.37
2019-01-23T17:47:49.097Z,37.87
2019-01-23T17:50:19.774Z,39.97
2019-01-23T17:52:49.235Z,38.20
2019-01-23T17:55:20.817Z,39.80
2019-01-23T17:57:49.814Z,38.77
2019-01-23T18:00:25.926Z,36.77
2019-01-23T18:02:54.863Z,37.27
2019-01-23T18:05:23.981Z,36.93
2019-01-23T18:07:55.463Z,35.67
2019-01-23T18:10:24.036Z,36.77
2019-01-23T18:12:52.613Z,39.50
2019-01-23T18:15:27.116Z,45.23
2019-01-23T18:17:56.130Z,49.03
2019-01-23T18:20:26.712Z,40.87
2019-01-23T18:22:56.253Z,34.10
2019-01-23T18:25:25.953Z,33.00
2019-01-23T18:27:54.380Z,35.80
2019-01-23T18:30:29.006Z,43.10
2019-01-23T18:33:00.128Z,58.43
2019-01-23T18:35:32.167Z,51.43
2019-01-23T18:38:15.812Z,38.07
2019-01-23T18:41:02.421Z,34.83
2019-01-23T18:43:39.729Z,35.37
2019-01-23T18:46:26.059Z,33.73
2019-01-23T18:49:16.880Z,32.33
2019-01-23T18:51:47.535Z,33.57
2019-01-23T18:54:17.920Z,33.03
2019-01-23T18:56:48.216Z,33.53
2019-01-23T18:59:16.594Z,33.87
2019-01-23T19:01:45.012Z,30.83
2019-01-23T19:04:13.396Z,30.97
2019-01-23T19:06:41.818Z,31.23
2019-01-23T19:09:10.803Z,31.33
2019-01-23T19:11:39.223Z,30.07
2019-01-23T19:14:08.673Z,29.77
2019-01-23T19:16:37.656Z,30.40
2019-01-23T19:19:06.620Z,31.70
2019-01-23T19:21:34.971Z,30.33
2019-01-23T19:24:04.321Z,30.40
2019-01-23T19:26:33.303Z,30.20
2019-01-23T19:29:02.000Z,30.90
2019-01-23T19:31:30.665Z,33.67
2019-01-23T19:34:00.224Z,36.17
2019-01-23T19:36:28.675Z,30.70
2019-01-23T19:38:57.028Z,30.10
2019-01-23T19:41:25.409Z,29.97
2019-01-23T19:43:53.755Z,32.90
2019-01-23T19:46:22.355Z,30.07
2019-01-23T19:48:52.487Z,30.63
2019-01-23T19:51:21.147Z,31.87
2019-01-23T19:53:49.557Z,31.53
2019-01-23T19:56:19.696Z,32.97
2019-01-23T19:58:48.097Z,31.70
2019-01-23T20:01:16.830Z,32.57
2019-01-23T20:03:45.548Z,32.13
2019-01-23T20:06:14.469Z,33.43
2019-01-23T20:08:46.002Z,35.93
2019-01-23T20:11:15.155Z,36.57
2019-01-23T20:13:44.109Z,33.60
2019-01-23T20:16:13.011Z,36.70
2019-01-23T20:18:42.863Z,35.23
2019-01-23T20:21:11.586Z,35.50
2019-01-23T20:23:40.383Z,37.57
2019-01-23T20:26:09.303Z,35.13
2019-01-23T20:28:37.646Z,35.83
2019-01-23T20:31:06.168Z,36.27
2019-01-23T20:33:35.111Z,37.07
2019-01-23T20:36:03.769Z,38.63
2019-01-23T20:38:33.882Z,38.37
2019-01-23T20:41:02.586Z,35.27
2019-01-23T20:43:31.450Z,34.63
2019-01-23T20:46:00.030Z,34.73
2019-01-23T20:48:28.866Z,35.53
2019-01-23T20:50:57.212Z,33.13
2019-01-23T20:53:25.792Z,36.17
2019-01-23T20:55:54.351Z,33.97
2019-01-23T20:58:23.857Z,32.33
2019-01-23T21:00:52.335Z,32.80
2019-01-23T21:03:20.881Z,33.97
2019-01-23T21:05:49.629Z,35.10
2019-01-23T21:08:24.902Z,36.03
2019-01-23T21:10:53.814Z,35.70
2019-01-23T21:13:22.264Z,35.00
2019-01-23T21:15:50.613Z,34.00
2019-01-23T21:18:18.995Z,34.83
2019-01-23T21:20:47.345Z,35.53
2019-01-23T21:23:18.508Z,34.83
2019-01-23T21:25:48.086Z,35.63
2019-01-23T21:28:16.840Z,34.77
2019-01-23T21:30:45.400Z,34.07
2019-01-23T21:33:13.777Z,34.23
2019-01-23T21:35:44.956Z,34.23
2019-01-23T21:38:13.630Z,31.67
2019-01-23T21:40:43.488Z,28.43
2019-01-23T21:43:12.360Z,29.47
2019-01-23T21:45:40.737Z,32.07
2019-01-23T21:48:09.611Z,31.63
2019-01-23T21:50:38.039Z,30.13
2019-01-23T21:53:07.116Z,33.33
2019-01-23T21:55:35.459Z,32.67
2019-01-23T21:58:04.112Z,30.60
2019-01-23T22:00:38.597Z,29.53
2019-01-23T22:03:09.359Z,27.63
2019-01-23T22:05:38.478Z,29.87
2019-01-23T22:08:09.039Z,28.80
2019-01-23T22:10:39.321Z,29.63
2019-01-23T22:13:07.788Z,30.67
2019-01-23T22:15:36.667Z,29.80
2019-01-23T22:18:07.350Z,29.53
2019-01-23T22:20:35.903Z,30.97
2019-01-23T22:23:04.948Z,29.30
2019-01-23T22:25:33.437Z,30.23
2019-01-23T22:28:02.240Z,31.57
2019-01-23T22:30:33.548Z,30.27
2019-01-23T22:33:02.130Z,32.07
2019-01-23T22:35:31.950Z,32.33
2019-01-23T22:38:03.170Z,33.43
2019-01-23T22:40:31.616Z,31.60
2019-01-23T22:43:01.249Z,30.87
2019-01-23T22:45:30.058Z,29.80
2019-01-23T22:47:58.729Z,30.90
2019-01-23T22:50:28.059Z,29.03
2019-01-23T22:52:58.288Z,29.53
2019-01-23T22:55:26.735Z,29.17
2019-01-23T22:57:55.753Z,28.80
2019-01-23T23:00:28.622Z,28.93
2019-01-23T23:02:57.108Z,28.97
2019-01-23T23:05:26.045Z,27.57
2019-01-23T23:07:54.525Z,28.93
2019-01-23T23:10:23.970Z,28.80
2019-01-23T23:12:52.320Z,27.03
2019-01-23T23:15:22.612Z,31.10
2019-01-23T23:17:52.537Z,27.87
2019-01-23T23:20:21.456Z,26.40
2019-01-23T23:22:50.067Z,26.77
2019-01-23T23:25:19.067Z,27.20
2019-01-23T23:27:47.750Z,27.53
2019-01-23T23:30:21.620Z,28.20
2019-01-23T23:32:50.361Z,28.93
2019-01-23T23:35:19.275Z,29.83
2019-01-23T23:37:47.759Z,29.07
2019-01-23T23:40:16.751Z,28.87
2019-01-23T23:42:47.113Z,29.50
2019-01-23T23:45:17.194Z,29.50
2019-01-23T23:47:45.641Z,29.37
2019-01-23T23:50:16.102Z,28.83
2019-01-23T23:52:44.613Z,30.87
2019-01-23T23:55:17.340Z,28.60
2019-01-23T23:57:46.341Z,28.37
